• Join FlightAware (Why Join?)
  • Login
  • US Flag 
08:48AM EDT


 

Airport Tracker/Info


-or-


 

Live Flight TrackerFlight Track Log ✈ BVN8571 ✈ 23-Aug-2013 ✈ KOMA - KEAR

Flight Track Log - Related Links

Times and Time Zones

All times are in EDT time to prevent confusion due to time zone crossing. See the BVN8571 flight status page for this flight to view local times or setup timezone preferences in your user account.

Time Position Orientation Groundspeed Altitude Reporting Facility
EDT Latitude Longitude Course Direction KTS MPH feet Rate Location/Type
07:45AM 41.2994 -95.8969 190° South 72 83 1,300  Level Minneapolis Center
07:46AM 41.2769 -95.9022 190° South 100 115 2,000 720 Climbing Minneapolis Center
07:47AM 41.2486 -95.9167 201° Southwest 116 133 2,700 720 Climbing Minneapolis Center
07:48AM 41.2250 -95.9414 218° Southwest 114 131 3,500 720 Climbing Minneapolis Center
07:49AM 41.2022 -95.9775 230° Southwest 113 130 4,300 660 Climbing Minneapolis Center
07:50AM 41.1900 -96.0147 246° West 122 140 5,000 660 Climbing Minneapolis Center
07:51AM 41.1825 -96.0600 258° West 121 139 5,700 420 Climbing Minneapolis Center
07:52AM 41.1731 -96.1053 255° West 133 153 5,900 60 Climbing Minneapolis Center
07:53AM 41.1661 -96.1614 261° West 158 182 5,900  Level Minneapolis Center
07:54AM 41.1572 -96.2206 259° West 159 183 5,900  Level Minneapolis Center
07:55AM 41.1483 -96.2769 258° West 156 180 5,900  Level Minneapolis Center
07:56AM 41.1392 -96.3333 258° West 154 177 5,900  Level Minneapolis Center
07:57AM 41.1303 -96.3894 258° West 155 178 5,900  Level Minneapolis Center
07:59AM 41.1233 -96.4456 261° West 156 180 5,900  Level Minneapolis Center
08:00AM 41.1119 -96.5022 255° West 154 177 5,900  Level Minneapolis Center
08:01AM 41.1050 -96.5581 261° West 153 176 5,900  Level Minneapolis Center
08:02AM 41.0958 -96.6144 258° West 155 178 5,900  Level Minneapolis Center
08:03AM 41.0867 -96.6706 258° West 154 177 5,900  Level Minneapolis Center
08:04AM 41.0794 -96.7239 260° West 152 175 5,900  Level Minneapolis Center
08:05AM 41.0700 -96.7803 257° West 152 175 5,900  Level Minneapolis Center
08:06AM 41.0606 -96.8336 257° West 153 176 5,900  Level Minneapolis Center
08:07AM 41.0517 -96.8925 259° West 153 176 5,900  Level Minneapolis Center
08:08AM 41.0419 -96.9458 256° West 155 178 5,900  Level Minneapolis Center
08:08AM 41.0519 -96.9731 296° West 156 180 5,900  Level Minneapolis Center
08:09AM 41.0328 -97.0047 231° Southwest 156 180 5,900  Level Minneapolis Center
08:09AM 41.0444 -97.0289 303° West 155 178 5,900  Level Minneapolis Center
08:10AM 41.0236 -97.0608 229° Southwest 157 181 5,900  Level Minneapolis Center
08:10AM 41.0356 -97.0856 303° West 156 180 5,900  Level Minneapolis Center
08:11AM 41.0272 -97.1414 259° West 156 180 5,900  Level Minneapolis Center
08:12AM 41.0183 -97.1981 258° West 156 180 5,900  Level Minneapolis Center
08:13AM 41.0081 -97.2525 256° West 154 177 5,900  Level Minneapolis Center
08:14AM 41.0019 -97.3083 262° West 153 176 5,900  Level Minneapolis Center
08:15AM 40.9894 -97.3800 257° West 157 181 5,900  Level Minneapolis Center
08:16AM 40.9825 -97.4353 261° West 153 176 5,900  Level Minneapolis Center
08:18AM 40.9719 -97.5003 258° West 151 174 5,900  Level Minneapolis Center
08:19AM 40.9636 -97.5547 259° West 151 174 5,900  Level Minneapolis Center
08:20AM 40.9547 -97.6083 258° West 150 173 5,900  Level Minneapolis Center
08:21AM 40.9461 -97.6633 258° West 151 174 5,900  Level Minneapolis Center
08:22AM 40.9386 -97.7178 260° West 151 174 5,900  Level Minneapolis Center
08:23AM 40.9294 -97.7717 257° West 151 174 5,900  Level Minneapolis Center
08:24AM 40.9211 -97.8264 259° West 151 174 5,900  Level Minneapolis Center
08:25AM 40.9128 -97.8814 259° West 152 175 5,900  Level Minneapolis Center
08:26AM 40.9036 -97.9375 258° West 154 177 5,900  Level Minneapolis Center
08:27AM 40.8931 -98.0025 258° West 152 175 5,900  Level Minneapolis Center
08:28AM 40.8861 -98.0544 260° West 146 168 5,900  Level Minneapolis Center
08:29AM 40.8753 -98.1067 255° West 147 169 5,900  Level Minneapolis Center
08:30AM 40.8675 -98.1622 260° West 151 174 5,900  Level Minneapolis Center
08:31AM 40.8594 -98.2161 259° West 150 173 5,900  Level Minneapolis Center
08:32AM 40.8517 -98.2711 259° West 152 175 5,900  Level Minneapolis Center
08:33AM 40.8422 -98.3250 257° West 150 173 5,900  Level Minneapolis Center
08:34AM 40.8328 -98.3797 257° West 152 175 5,900  Level Minneapolis Center
08:35AM 40.8217 -98.4339 255° West 152 175 6,000  Climbing Minneapolis Center
08:36AM 40.8111 -98.4997 258° West 152 175 6,000 -60 Level Minneapolis Center
08:37AM 40.8014 -98.5536 257° West 152 175 5,900 -120 Descending Minneapolis Center
08:38AM 40.7928 -98.6069 258° West 150 173 5,800 -240 Descending Minneapolis Center
08:39AM 40.7836 -98.6625 258° West 151 174 5,500 -360 Descending Minneapolis Center
08:40AM 40.7747 -98.7194 258° West 154 177 5,100 -420 Descending Minneapolis Center
08:41AM 40.7642 -98.7778 257° West 158 182 4,700 -420 Descending Minneapolis Center
08:42AM 40.7558 -98.8350 259° West 159 183 4,300 -360 Descending Minneapolis Center
08:43AM 40.7511 -98.8919 264° West 158 182 4,000 -420 Descending Minneapolis Center
08:44AM 40.7558 -98.9483 276° West 155 178 3,500 -600 Descending Minneapolis Center
08:45AM 40.7589 -99.0008 274° West 150 173 2,800 -540 Descending Minneapolis Center
08:46AM 40.7294 -99.0042 185° South 141 162 2,400 -420 Descending Minneapolis Center
08:48AM 40.7270 -99.0068 270° West  Level Estimated